• Join FlightAware (Why Join?)
  • Login
  • US Flag 
 
08:34PM EST


 

Airport Tracker/Info


-or-


 

Live Flight TrackerFlight Track Log ✈ KAP927 ✈ 28-Jun-2013 ✈ KALB - KOGS

Flight Track Log - Related Links

Times and Time Zones

All times are in EDT time to prevent confusion due to time zone crossing. See the KAP927 flight status page for this flight to view local times or setup timezone preferences in your user account.

Time Position Orientation Groundspeed Altitude Reporting Facility
EDT Latitude Longitude Course Direction KTS MPH feet Rate Location/Type
02:53PM 42.6961 -73.8411 216° Southwest 116 133 1,700  Level Boston Center
02:54PM 42.6789 -73.8833 241° Southwest 120 138 2,400 420 Climbing Boston Center
02:55PM 42.6994 -73.9119 314° West 139 160 2,700 420 Climbing Boston Center
02:56PM 42.7389 -73.9131 359° North 141 162 3,300 540 Climbing Boston Center
02:57PM 42.7786 -73.9139 359° North 141 162 3,800 480 Climbing Boston Center
02:58PM 42.8203 -73.9147 359° North 147 169 4,300 540 Climbing Boston Center
02:59PM 42.8619 -73.9158 359° North 153 176 4,900 540 Climbing Boston Center
03:00PM 42.8994 -73.9197 356° North 151 174 5,400 540 Climbing Boston Center
03:01PM 42.9389 -73.9178 North 141 162 6,000 540 Climbing Boston Center
03:02PM 42.9764 -73.9242 353° North 136 157 6,600 540 Climbing Boston Center
03:03PM 43.0222 -73.9225 North 141 162 7,200 540 Climbing Boston Center
03:04PM 43.0661 -73.9236 359° North 149 171 7,800 480 Climbing Boston Center
03:05PM 43.1078 -73.9247 359° North 175 201 8,300 480 Climbing Boston Center
03:06PM 43.1450 -73.9283 356° North 154 177 8,800 360 Climbing Boston Center
03:07PM 43.1822 -73.9578 330° Northwest 139 160 9,100 120 Climbing Boston Center
03:08PM 43.2150 -73.9928 322° Northwest 159 183 9,100 -60 Level Boston Center
03:09PM 43.2583 -74.0336 326° Northwest 175 201 9,000 -60 Descending Boston Center
03:10PM 43.3036 -74.0806 323° Northwest 170 196 9,000  Level Boston Center
03:11PM 43.3406 -74.1158 325° Northwest 170 196 9,000  Level Boston Center
03:12PM 43.3756 -74.1511 324° Northwest 170 196 9,000  Level Boston Center
03:13PM 43.4083 -74.1833 324° Northwest 170 196 9,000  Level Boston Center
03:14PM 43.4433 -74.2158 326° Northwest 160 184 9,000  Level Boston Center
03:15PM 43.4781 -74.2483 326° Northwest 155 178 9,100  Climbing Boston Center
03:16PM 43.5108 -74.2836 322° Northwest 155 178 9,000 -60 Descending Boston Center
03:17PM 43.5478 -74.3164 327° Northwest 155 178 9,000  Level Boston Center
03:18PM 43.5806 -74.3517 322° Northwest 149 171 9,100  Climbing Boston Center
03:19PM 43.6156 -74.3872 324° Northwest 149 171 9,000 -60 Descending Boston Center
03:20PM 43.6503 -74.4228 323° Northwest 149 171 9,000  Level Boston Center
03:21PM 43.6872 -74.4556 327° Northwest 149 171 9,000  Level Boston Center
03:22PM 43.7242 -74.4942 323° Northwest 149 171 9,100  Climbing Boston Center
03:23PM 43.7589 -74.5269 326° Northwest 149 171 9,000 -60 Descending Boston Center
03:24PM 43.7936 -74.5628 323° Northwest 154 177 9,000  Level Boston Center
03:25PM 43.8306 -74.6014 323° Northwest 154 177 9,000  Level Boston Center
03:26PM 43.8694 -74.6317 331° Northwest 154 177 9,000 -60 Level Boston Center
03:27PM 43.9128 -74.6564 338° Northwest 154 177 8,900  Descending Boston Center
03:28PM 43.9561 -74.6811 338° Northwest 159 183 9,000  Climbing Boston Center
03:29PM 43.9992 -74.7114 333° Northwest 165 190 9,000 -60 Level Boston Center
03:30PM 44.0406 -74.7361 337° Northwest 165 190 8,900  Descending Boston Center
03:31PM 44.0817 -74.7581 339° North 165 190 9,000  Climbing Boston Center
03:32PM 44.1247 -74.7886 333° Northwest 165 190 9,000 -60 Level Boston Center
03:33PM 44.1619 -74.8103 337° Northwest 165 190 8,900 -300 Descending Boston Center
03:34PM 44.2072 -74.8353 338° Northwest 165 190 8,500 -540 Descending Boston Center
03:35PM 44.2628 -74.8722 335° Northwest 181 208 7,900 -600 Descending Boston Center
03:36PM 44.3122 -74.9006 338° Northwest 192 221 7,400 -600 Descending Boston Center
03:37PM 44.3614 -74.9344 334° Northwest 192 221 6,800 -600 Descending Boston Center
03:38PM 44.4089 -74.9597 339° North 192 221 6,300 -600 Descending Boston Center
03:39PM 44.4517 -74.9936 331° Northwest 187 215 5,600 -600 Descending Boston Center
03:40PM 44.4972 -75.0189 338° Northwest 182 209 5,100 -540 Descending Boston Center
03:41PM 44.5419 -75.0586 328° Northwest 177 204 4,600 -480 Descending Boston Center
03:42PM 44.5894 -75.0811 341° North 177 204 4,200 -420 Descending Boston Center
03:43PM 44.6347 -75.1094 336° Northwest 172 198 3,800 -480 Descending Boston Center
03:45PM 44.6881 -75.1469 333° Northwest 172 198 3,200 -300 Descending Boston Center
03:46PM 44.7311 -75.1753 335° Northwest 172 198 3,200  Level Boston Center
03:47PM 44.7761 -75.2064 334° Northwest 172 198 3,200  Level Boston Center
03:48PM 44.8233 -75.2381 335° Northwest 172 198 3,200  Level Boston Center
03:49PM 44.6842 -75.4650 229° Southwest 172 198 3,200  Level Boston Center
03:50PM 44.6842 -75.4650 180° South 172 198 3,200  Level Boston Center